sensor_id;sensor_type;location;lat;lon;timestamp;P1;durP1;ratioP1;P2;durP2;ratioP2
19854;SDS011;10088;47.946;2.532;2023-02-28T00:01:31;2.60;;;2.03;;
19854;SDS011;10088;47.946;2.532;2023-02-28T00:03:56;1.93;;;1.60;;
19854;SDS011;10088;47.946;2.532;2023-02-28T00:06:22;3.23;;;1.73;;
19854;SDS011;10088;47.946;2.532;2023-02-28T00:08:47;1.47;;;1.20;;
19854;SDS011;10088;47.946;2.532;2023-02-28T00:11:13;4.03;;;1.60;;
19854;SDS011;10088;47.946;2.532;2023-02-28T00:13:41;2.43;;;1.70;;
19854;SDS011;10088;47.946;2.532;2023-02-28T00:16:10;1.80;;;1.60;;
19854;SDS011;10088;47.946;2.532;2023-02-28T00:18:36;2.77;;;1.80;;
19854;SDS011;10088;47.946;2.532;2023-02-28T00:21:01;3.37;;;1.90;;
19854;SDS011;10088;47.946;2.532;2023-02-28T00:23:27;3.80;;;2.03;;
19854;SDS011;10088;47.946;2.532;2023-02-28T00:25:52;2.67;;;1.80;;
19854;SDS011;10088;47.946;2.532;2023-02-28T00:28:17;1.97;;;1.63;;
19854;SDS011;10088;47.946;2.532;2023-02-28T00:30:43;4.30;;;2.00;;
19854;SDS011;10088;47.946;2.532;2023-02-28T00:33:08;2.03;;;1.73;;
19854;SDS011;10088;47.946;2.532;2023-02-28T00:35:34;1.90;;;1.70;;
19854;SDS011;10088;47.946;2.532;2023-02-28T00:37:59;3.87;;;1.93;;
19854;SDS011;10088;47.946;2.532;2023-02-28T00:40:24;4.03;;;1.97;;
19854;SDS011;10088;47.946;2.532;2023-02-28T00:42:49;2.10;;;1.90;;
19854;SDS011;10088;47.946;2.532;2023-02-28T00:45:15;2.43;;;1.60;;
19854;SDS011;10088;47.946;2.532;2023-02-28T00:47:40;3.03;;;2.07;;
19854;SDS011;10088;47.946;2.532;2023-02-28T00:50:06;2.43;;;1.93;;
19854;SDS011;10088;47.946;2.532;2023-02-28T00:52:31;3.43;;;2.20;;
19854;SDS011;10088;47.946;2.532;2023-02-28T00:54:56;2.90;;;2.10;;
19854;SDS011;10088;47.946;2.532;2023-02-28T00:57:22;2.20;;;1.97;;
19854;SDS011;10088;47.946;2.532;2023-02-28T00:59:47;2.40;;;2.00;;
19854;SDS011;10088;47.946;2.532;2023-02-28T01:02:13;2.90;;;2.13;;
19854;SDS011;10088;47.946;2.532;2023-02-28T01:04:38;4.70;;;2.43;;
19854;SDS011;10088;47.946;2.532;2023-02-28T01:07:03;4.03;;;2.10;;
19854;SDS011;10088;47.946;2.532;2023-02-28T01:09:29;3.90;;;2.07;;
19854;SDS011;10088;47.946;2.532;2023-02-28T01:11:54;3.93;;;2.10;;
19854;SDS011;10088;47.946;2.532;2023-02-28T01:14:19;2.73;;;2.37;;
19854;SDS011;10088;47.946;2.532;2023-02-28T01:16:44;4.47;;;2.60;;
19854;SDS011;10088;47.946;2.532;2023-02-28T01:19:10;3.37;;;2.27;;
19854;SDS011;10088;47.946;2.532;2023-02-28T01:21:35;3.77;;;2.30;;
19854;SDS011;10088;47.946;2.532;2023-02-28T01:24:01;3.47;;;2.30;;
19854;SDS011;10088;47.946;2.532;2023-02-28T01:26:26;3.33;;;2.57;;
19854;SDS011;10088;47.946;2.532;2023-02-28T01:28:52;3.17;;;1.97;;
19854;SDS011;10088;47.946;2.532;2023-02-28T01:31:18;3.20;;;2.70;;
19854;SDS011;10088;47.946;2.532;2023-02-28T01:33:44;2.87;;;2.57;;
19854;SDS011;10088;47.946;2.532;2023-02-28T01:36:16;2.50;;;2.10;;
19854;SDS011;10088;47.946;2.532;2023-02-28T01:38:42;5.20;;;2.60;;
19854;SDS011;10088;47.946;2.532;2023-02-28T01:41:08;3.53;;;2.80;;
19854;SDS011;10088;47.946;2.532;2023-02-28T01:46:10;5.30;;;3.13;;
19854;SDS011;10088;47.946;2.532;2023-02-28T01:48:36;4.63;;;3.33;;
19854;SDS011;10088;47.946;2.532;2023-02-28T01:51:05;4.10;;;3.33;;
19854;SDS011;10088;47.946;2.532;2023-02-28T01:53:32;4.50;;;3.60;;
19854;SDS011;10088;47.946;2.532;2023-02-28T01:55:58;7.03;;;3.60;;
19854;SDS011;10088;47.946;2.532;2023-02-28T01:58:24;6.13;;;3.93;;
19854;SDS011;10088;47.946;2.532;2023-02-28T02:00:49;6.17;;;3.73;;
19854;SDS011;10088;47.946;2.532;2023-02-28T02:03:16;5.97;;;4.30;;
19854;SDS011;10088;47.946;2.532;2023-02-28T02:05:44;4.80;;;4.10;;
19854;SDS011;10088;47.946;2.532;2023-02-28T02:08:13;5.07;;;4.37;;
19854;SDS011;10088;47.946;2.532;2023-02-28T02:10:44;5.10;;;4.33;;
19854;SDS011;10088;47.946;2.532;2023-02-28T02:15:53;5.63;;;4.90;;
19854;SDS011;10088;47.946;2.532;2023-02-28T02:33:45;6.70;;;5.30;;
19854;SDS011;10088;47.946;2.532;2023-02-28T02:36:23;6.03;;;5.10;;
19854;SDS011;10088;47.946;2.532;2023-02-28T02:44:02;7.87;;;5.10;;
19854;SDS011;10088;47.946;2.532;2023-02-28T02:46:29;5.77;;;5.07;;
19854;SDS011;10088;47.946;2.532;2023-02-28T02:48:56;5.73;;;5.03;;
19854;SDS011;10088;47.946;2.532;2023-02-28T02:51:22;5.73;;;5.13;;
19854;SDS011;10088;47.946;2.532;2023-02-28T02:56:46;6.33;;;5.37;;
19854;SDS011;10088;47.946;2.532;2023-02-28T02:59:12;6.53;;;5.60;;
19854;SDS011;10088;47.946;2.532;2023-02-28T03:01:39;8.23;;;5.13;;
19854;SDS011;10088;47.946;2.532;2023-02-28T03:04:13;6.90;;;5.57;;
19854;SDS011;10088;47.946;2.532;2023-02-28T03:06:40;7.23;;;4.93;;
19854;SDS011;10088;47.946;2.532;2023-02-28T03:09:05;4.90;;;4.40;;
19854;SDS011;10088;47.946;2.532;2023-02-28T03:11:31;5.27;;;4.77;;
19854;SDS011;10088;47.946;2.532;2023-02-28T03:21:23;6.20;;;5.47;;
19854;SDS011;10088;47.946;2.532;2023-02-28T03:26:24;6.70;;;5.13;;
19854;SDS011;10088;47.946;2.532;2023-02-28T03:28:55;7.43;;;5.53;;
19854;SDS011;10088;47.946;2.532;2023-02-28T03:31:38;6.97;;;5.93;;
19854;SDS011;10088;47.946;2.532;2023-02-28T03:34:07;5.77;;;4.83;;
19854;SDS011;10088;47.946;2.532;2023-02-28T03:36:37;8.53;;;5.87;;
19854;SDS011;10088;47.946;2.532;2023-02-28T03:39:09;6.53;;;5.67;;
19854;SDS011;10088;47.946;2.532;2023-02-28T03:41:44;6.40;;;5.07;;
19854;SDS011;10088;47.946;2.532;2023-02-28T03:44:22;6.97;;;5.23;;
19854;SDS011;10088;47.946;2.532;2023-02-28T03:52:21;8.27;;;5.10;;
19854;SDS011;10088;47.946;2.532;2023-02-28T03:54:50;7.03;;;5.20;;
19854;SDS011;10088;47.946;2.532;2023-02-28T03:57:25;8.10;;;5.53;;
19854;SDS011;10088;47.946;2.532;2023-02-28T03:59:56;5.70;;;5.10;;
19854;SDS011;10088;47.946;2.532;2023-02-28T04:02:24;6.37;;;5.00;;
19854;SDS011;10088;47.946;2.532;2023-02-28T04:04:49;6.40;;;5.07;;
19854;SDS011;10088;47.946;2.532;2023-02-28T04:07:16;7.33;;;4.83;;
19854;SDS011;10088;47.946;2.532;2023-02-28T04:09:41;5.77;;;5.20;;
19854;SDS011;10088;47.946;2.532;2023-02-28T04:12:07;7.67;;;5.30;;
19854;SDS011;10088;47.946;2.532;2023-02-28T04:14:32;6.97;;;5.00;;
19854;SDS011;10088;47.946;2.532;2023-02-28T04:16:57;7.70;;;4.90;;
19854;SDS011;10088;47.946;2.532;2023-02-28T04:19:23;8.97;;;5.17;;
19854;SDS011;10088;47.946;2.532;2023-02-28T04:21:52;7.47;;;5.27;;
19854;SDS011;10088;47.946;2.532;2023-02-28T04:24:21;7.23;;;5.10;;
19854;SDS011;10088;47.946;2.532;2023-02-28T04:26:48;7.20;;;4.43;;
19854;SDS011;10088;47.946;2.532;2023-02-28T04:29:18;5.97;;;4.80;;
19854;SDS011;10088;47.946;2.532;2023-02-28T04:31:44;5.37;;;4.37;;
19854;SDS011;10088;47.946;2.532;2023-02-28T04:34:09;5.30;;;4.40;;
19854;SDS011;10088;47.946;2.532;2023-02-28T04:36:34;5.40;;;4.87;;
19854;SDS011;10088;47.946;2.532;2023-02-28T04:39:00;12.30;;;4.77;;
19854;SDS011;10088;47.946;2.532;2023-02-28T04:41:25;4.97;;;4.33;;
19854;SDS011;10088;47.946;2.532;2023-02-28T04:43:51;7.77;;;5.17;;
19854;SDS011;10088;47.946;2.532;2023-02-28T04:46:16;5.53;;;4.73;;
19854;SDS011;10088;47.946;2.532;2023-02-28T04:48:43;6.17;;;5.10;;
19854;SDS011;10088;47.946;2.532;2023-02-28T04:51:10;5.67;;;4.63;;
19854;SDS011;10088;47.946;2.532;2023-02-28T04:53:36;6.77;;;4.57;;
19854;SDS011;10088;47.946;2.532;2023-02-28T04:56:02;5.20;;;4.37;;
19854;SDS011;10088;47.946;2.532;2023-02-28T04:58:28;6.27;;;4.97;;
19854;SDS011;10088;47.946;2.532;2023-02-28T05:00:54;6.43;;;5.17;;
19854;SDS011;10088;47.946;2.532;2023-02-28T05:03:26;6.10;;;4.50;;
19854;SDS011;10088;47.946;2.532;2023-02-28T05:05:51;5.47;;;4.20;;
19854;SDS011;10088;47.946;2.532;2023-02-28T05:08:16;5.67;;;4.33;;
19854;SDS011;10088;47.946;2.532;2023-02-28T05:10:41;7.43;;;4.10;;
19854;SDS011;10088;47.946;2.532;2023-02-28T05:13:08;4.90;;;4.27;;
19854;SDS011;10088;47.946;2.532;2023-02-28T05:15:34;5.77;;;4.53;;
19854;SDS011;10088;47.946;2.532;2023-02-28T05:17:59;5.73;;;4.67;;
19854;SDS011;10088;47.946;2.532;2023-02-28T05:20:24;5.23;;;4.17;;
19854;SDS011;10088;47.946;2.532;2023-02-28T05:22:50;5.20;;;4.63;;
19854;SDS011;10088;47.946;2.532;2023-02-28T05:25:18;5.80;;;4.40;;
19854;SDS011;10088;47.946;2.532;2023-02-28T05:27:43;6.37;;;4.03;;
19854;SDS011;10088;47.946;2.532;2023-02-28T05:30:09;6.40;;;4.00;;
19854;SDS011;10088;47.946;2.532;2023-02-28T05:32:38;5.03;;;4.23;;
19854;SDS011;10088;47.946;2.532;2023-02-28T05:35:04;5.83;;;4.70;;
19854;SDS011;10088;47.946;2.532;2023-02-28T05:37:29;13.37;;;5.17;;
19854;SDS011;10088;47.946;2.532;2023-02-28T05:39:54;5.87;;;4.07;;
19854;SDS011;10088;47.946;2.532;2023-02-28T05:42:20;7.73;;;4.60;;
19854;SDS011;10088;47.946;2.532;2023-02-28T05:44:45;5.43;;;4.30;;
19854;SDS011;10088;47.946;2.532;2023-02-28T05:47:11;9.37;;;5.13;;
19854;SDS011;10088;47.946;2.532;2023-02-28T05:49:39;7.60;;;4.17;;
19854;SDS011;10088;47.946;2.532;2023-02-28T05:52:04;6.70;;;4.43;;
19854;SDS011;10088;47.946;2.532;2023-02-28T05:54:30;7.47;;;5.27;;
19854;SDS011;10088;47.946;2.532;2023-02-28T05:56:55;6.33;;;4.20;;
19854;SDS011;10088;47.946;2.532;2023-02-28T05:59:21;7.73;;;4.27;;
19854;SDS011;10088;47.946;2.532;2023-02-28T06:01:46;4.87;;;4.20;;
19854;SDS011;10088;47.946;2.532;2023-02-28T06:04:15;4.80;;;4.30;;
19854;SDS011;10088;47.946;2.532;2023-02-28T06:06:46;6.00;;;4.50;;
19854;SDS011;10088;47.946;2.532;2023-02-28T06:09:11;4.60;;;3.70;;
19854;SDS011;10088;47.946;2.532;2023-02-28T06:11:37;4.77;;;4.00;;
19854;SDS011;10088;47.946;2.532;2023-02-28T06:14:02;6.77;;;4.50;;
19854;SDS011;10088;47.946;2.532;2023-02-28T06:16:29;5.67;;;4.50;;
19854;SDS011;10088;47.946;2.532;2023-02-28T06:18:54;7.70;;;4.20;;
19854;SDS011;10088;47.946;2.532;2023-02-28T06:21:22;4.87;;;4.20;;
19854;SDS011;10088;47.946;2.532;2023-02-28T06:23:47;9.67;;;3.77;;
19854;SDS011;10088;47.946;2.532;2023-02-28T06:26:12;5.43;;;3.70;;
19854;SDS011;10088;47.946;2.532;2023-02-28T06:28:38;6.30;;;3.77;;
19854;SDS011;10088;47.946;2.532;2023-02-28T06:31:07;4.67;;;4.23;;
19854;SDS011;10088;47.946;2.532;2023-02-28T06:33:33;6.93;;;4.27;;
19854;SDS011;10088;47.946;2.532;2023-02-28T06:35:58;4.97;;;3.67;;
19854;SDS011;10088;47.946;2.532;2023-02-28T06:38:23;4.73;;;3.80;;
19854;SDS011;10088;47.946;2.532;2023-02-28T06:40:55;4.17;;;3.70;;
19854;SDS011;10088;47.946;2.532;2023-02-28T06:43:20;3.93;;;3.43;;
19854;SDS011;10088;47.946;2.532;2023-02-28T06:45:46;5.67;;;3.47;;
19854;SDS011;10088;47.946;2.532;2023-02-28T06:48:11;7.23;;;3.70;;
19854;SDS011;10088;47.946;2.532;2023-02-28T06:50:36;4.47;;;3.83;;
19854;SDS011;10088;47.946;2.532;2023-02-28T06:53:02;4.07;;;3.60;;
19854;SDS011;10088;47.946;2.532;2023-02-28T06:55:27;7.87;;;3.20;;
19854;SDS011;10088;47.946;2.532;2023-02-28T06:57:52;5.80;;;3.47;;
19854;SDS011;10088;47.946;2.532;2023-02-28T07:00:19;7.83;;;4.10;;
19854;SDS011;10088;47.946;2.532;2023-02-28T07:02:45;7.73;;;3.40;;
19854;SDS011;10088;47.946;2.532;2023-02-28T07:05:10;4.67;;;4.00;;
19854;SDS011;10088;47.946;2.532;2023-02-28T07:07:35;4.93;;;4.10;;
19854;SDS011;10088;47.946;2.532;2023-02-28T07:10:03;6.37;;;3.67;;
19854;SDS011;10088;47.946;2.532;2023-02-28T07:12:28;3.97;;;3.40;;
19854;SDS011;10088;47.946;2.532;2023-02-28T07:14:54;5.40;;;3.43;;
19854;SDS011;10088;47.946;2.532;2023-02-28T07:17:20;5.30;;;3.17;;
19854;SDS011;10088;47.946;2.532;2023-02-28T07:19:46;3.67;;;3.30;;
19854;SDS011;10088;47.946;2.532;2023-02-28T07:22:11;4.27;;;3.47;;
19854;SDS011;10088;47.946;2.532;2023-02-28T07:24:36;3.20;;;2.90;;
19854;SDS011;10088;47.946;2.532;2023-02-28T07:27:01;4.33;;;2.80;;
19854;SDS011;10088;47.946;2.532;2023-02-28T07:29:27;3.07;;;2.77;;
19854;SDS011;10088;47.946;2.532;2023-02-28T07:31:52;5.27;;;3.33;;
19854;SDS011;10088;47.946;2.532;2023-02-28T07:34:18;6.63;;;2.90;;
19854;SDS011;10088;47.946;2.532;2023-02-28T07:36:43;5.40;;;3.13;;
19854;SDS011;10088;47.946;2.532;2023-02-28T07:39:09;3.80;;;2.80;;
19854;SDS011;10088;47.946;2.532;2023-02-28T07:41:35;4.63;;;2.87;;
19854;SDS011;10088;47.946;2.532;2023-02-28T07:44:04;3.13;;;2.77;;
19854;SDS011;10088;47.946;2.532;2023-02-28T07:46:29;5.03;;;2.57;;
19854;SDS011;10088;47.946;2.532;2023-02-28T07:49:00;6.10;;;2.77;;
19854;SDS011;10088;47.946;2.532;2023-02-28T07:51:26;3.17;;;2.50;;
19854;SDS011;10088;47.946;2.532;2023-02-28T07:53:51;3.37;;;2.67;;
19854;SDS011;10088;47.946;2.532;2023-02-28T07:56:16;4.13;;;2.70;;
19854;SDS011;10088;47.946;2.532;2023-02-28T07:58:41;2.70;;;2.17;;
19854;SDS011;10088;47.946;2.532;2023-02-28T08:01:07;4.57;;;2.40;;
19854;SDS011;10088;47.946;2.532;2023-02-28T08:03:33;2.67;;;2.03;;
19854;SDS011;10088;47.946;2.532;2023-02-28T08:05:58;5.80;;;2.40;;
19854;SDS011;10088;47.946;2.532;2023-02-28T08:08:23;4.53;;;2.37;;
19854;SDS011;10088;47.946;2.532;2023-02-28T08:10:48;4.07;;;2.83;;
19854;SDS011;10088;47.946;2.532;2023-02-28T08:13:14;3.23;;;1.70;;
19854;SDS011;10088;47.946;2.532;2023-02-28T08:15:40;2.97;;;2.30;;
19854;SDS011;10088;47.946;2.532;2023-02-28T08:18:06;1.80;;;1.70;;
19854;SDS011;10088;47.946;2.532;2023-02-28T08:20:31;4.30;;;2.77;;
19854;SDS011;10088;47.946;2.532;2023-02-28T08:22:56;2.90;;;1.93;;
19854;SDS011;10088;47.946;2.532;2023-02-28T08:25:21;2.70;;;1.93;;
19854;SDS011;10088;47.946;2.532;2023-02-28T08:27:47;2.13;;;1.63;;
19854;SDS011;10088;47.946;2.532;2023-02-28T08:30:13;4.60;;;2.03;;
19854;SDS011;10088;47.946;2.532;2023-02-28T08:32:39;2.23;;;1.90;;
19854;SDS011;10088;47.946;2.532;2023-02-28T08:35:04;2.30;;;1.63;;
19854;SDS011;10088;47.946;2.532;2023-02-28T08:37:30;5.00;;;2.80;;
19854;SDS011;10088;47.946;2.532;2023-02-28T08:39:55;3.73;;;2.73;;
19854;SDS011;10088;47.946;2.532;2023-02-28T08:42:20;3.03;;;1.90;;
19854;SDS011;10088;47.946;2.532;2023-02-28T08:44:45;2.50;;;1.80;;
19854;SDS011;10088;47.946;2.532;2023-02-28T08:47:11;7.53;;;2.50;;
19854;SDS011;10088;47.946;2.532;2023-02-28T08:49:36;3.30;;;2.77;;
19854;SDS011;10088;47.946;2.532;2023-02-28T08:52:02;2.10;;;1.57;;
19854;SDS011;10088;47.946;2.532;2023-02-28T08:54:27;2.77;;;2.10;;
19854;SDS011;10088;47.946;2.532;2023-02-28T08:56:55;3.17;;;1.87;;
19854;SDS011;10088;47.946;2.532;2023-02-28T08:59:20;2.50;;;2.23;;
19854;SDS011;10088;47.946;2.532;2023-02-28T09:01:46;4.60;;;3.83;;
19854;SDS011;10088;47.946;2.532;2023-02-28T09:04:11;5.33;;;4.23;;
19854;SDS011;10088;47.946;2.532;2023-02-28T09:06:36;7.90;;;5.97;;
19854;SDS011;10088;47.946;2.532;2023-02-28T09:09:02;2.20;;;2.00;;
19854;SDS011;10088;47.946;2.532;2023-02-28T09:11:29;5.40;;;3.57;;
19854;SDS011;10088;47.946;2.532;2023-02-28T09:13:54;7.73;;;4.97;;
19854;SDS011;10088;47.946;2.532;2023-02-28T09:16:24;4.13;;;2.37;;
19854;SDS011;10088;47.946;2.532;2023-02-28T09:18:49;2.73;;;2.17;;
19854;SDS011;10088;47.946;2.532;2023-02-28T09:21:16;2.90;;;2.60;;
19854;SDS011;10088;47.946;2.532;2023-02-28T09:23:42;6.30;;;4.73;;
19854;SDS011;10088;47.946;2.532;2023-02-28T09:26:11;3.93;;;2.90;;
19854;SDS011;10088;47.946;2.532;2023-02-28T09:28:37;3.23;;;2.13;;
19854;SDS011;10088;47.946;2.532;2023-02-28T09:31:03;4.03;;;2.27;;
19854;SDS011;10088;47.946;2.532;2023-02-28T09:33:29;5.77;;;3.90;;
19854;SDS011;10088;47.946;2.532;2023-02-28T09:35:59;2.70;;;2.37;;
19854;SDS011;10088;47.946;2.532;2023-02-28T09:38:25;6.40;;;3.30;;
19854;SDS011;10088;47.946;2.532;2023-02-28T09:40:51;1.90;;;1.70;;
19854;SDS011;10088;47.946;2.532;2023-02-28T09:43:17;2.63;;;1.90;;
19854;SDS011;10088;47.946;2.532;2023-02-28T09:45:49;6.10;;;1.87;;
19854;SDS011;10088;47.946;2.532;2023-02-28T09:48:17;2.37;;;1.73;;
19854;SDS011;10088;47.946;2.532;2023-02-28T09:50:46;3.30;;;1.60;;
19854;SDS011;10088;47.946;2.532;2023-02-28T09:53:21;3.57;;;2.30;;
19854;SDS011;10088;47.946;2.532;2023-02-28T09:55:48;4.67;;;2.83;;
19854;SDS011;10088;47.946;2.532;2023-02-28T09:58:16;3.57;;;1.73;;
19854;SDS011;10088;47.946;2.532;2023-02-28T10:00:43;3.83;;;1.80;;
19854;SDS011;10088;47.946;2.532;2023-02-28T10:03:20;2.17;;;1.80;;
19854;SDS011;10088;47.946;2.532;2023-02-28T10:05:51;2.53;;;2.00;;
19854;SDS011;10088;47.946;2.532;2023-02-28T10:08:38;2.20;;;1.93;;
19854;SDS011;10088;47.946;2.532;2023-02-28T10:11:09;2.33;;;1.83;;
19854;SDS011;10088;47.946;2.532;2023-02-28T10:13:56;3.57;;;2.13;;
19854;SDS011;10088;47.946;2.532;2023-02-28T10:16:31;3.43;;;2.50;;
19854;SDS011;10088;47.946;2.532;2023-02-28T10:21:35;2.20;;;1.80;;
19854;SDS011;10088;47.946;2.532;2023-02-28T10:26:44;4.80;;;1.90;;
19854;SDS011;10088;47.946;2.532;2023-02-28T10:29:10;2.67;;;1.93;;
19854;SDS011;10088;47.946;2.532;2023-02-28T10:31:35;3.23;;;2.17;;
19854;SDS011;10088;47.946;2.532;2023-02-28T10:34:01;1.93;;;1.73;;
19854;SDS011;10088;47.946;2.532;2023-02-28T10:36:27;2.73;;;2.37;;
19854;SDS011;10088;47.946;2.532;2023-02-28T10:38:53;2.93;;;2.20;;
19854;SDS011;10088;47.946;2.532;2023-02-28T10:41:27;3.30;;;2.50;;
19854;SDS011;10088;47.946;2.532;2023-02-28T10:43:53;2.20;;;2.00;;
19854;SDS011;10088;47.946;2.532;2023-02-28T10:46:22;3.60;;;2.03;;
19854;SDS011;10088;47.946;2.532;2023-02-28T10:49:00;3.47;;;2.37;;
19854;SDS011;10088;47.946;2.532;2023-02-28T10:51:26;4.53;;;2.53;;
19854;SDS011;10088;47.946;2.532;2023-02-28T10:53:59;4.17;;;3.10;;
19854;SDS011;10088;47.946;2.532;2023-02-28T10:56:24;3.77;;;2.20;;
19854;SDS011;10088;47.946;2.532;2023-02-28T11:01:20;2.77;;;2.20;;
19854;SDS011;10088;47.946;2.532;2023-02-28T11:03:46;2.47;;;2.27;;
19854;SDS011;10088;47.946;2.532;2023-02-28T11:08:52;2.93;;;2.40;;
19854;SDS011;10088;47.946;2.532;2023-02-28T11:11:26;2.20;;;1.93;;
19854;SDS011;10088;47.946;2.532;2023-02-28T11:14:03;5.40;;;2.50;;
19854;SDS011;10088;47.946;2.532;2023-02-28T11:16:34;2.20;;;2.00;;
19854;SDS011;10088;47.946;2.532;2023-02-28T11:19:17;2.33;;;1.97;;
19854;SDS011;10088;47.946;2.532;2023-02-28T11:21:52;2.97;;;2.30;;
19854;SDS011;10088;47.946;2.532;2023-02-28T11:27:01;4.23;;;2.23;;
19854;SDS011;10088;47.946;2.532;2023-02-28T11:29:33;3.83;;;2.23;;
19854;SDS011;10088;47.946;2.532;2023-02-28T11:32:20;2.67;;;1.93;;
19854;SDS011;10088;47.946;2.532;2023-02-28T11:37:37;4.10;;;2.00;;
19854;SDS011;10088;47.946;2.532;2023-02-28T11:40:21;3.30;;;2.40;;
19854;SDS011;10088;47.946;2.532;2023-02-28T11:45:45;3.33;;;2.30;;
19854;SDS011;10088;47.946;2.532;2023-02-28T11:48:20;2.43;;;1.93;;
19854;SDS011;10088;47.946;2.532;2023-02-28T11:56:06;3.67;;;2.40;;
19854;SDS011;10088;47.946;2.532;2023-02-28T12:09:03;3.23;;;2.93;;
19854;SDS011;10088;47.946;2.532;2023-02-28T12:11:48;3.20;;;2.30;;
19854;SDS011;10088;47.946;2.532;2023-02-28T12:17:27;2.70;;;2.00;;
19854;SDS011;10088;47.946;2.532;2023-02-28T12:25:38;2.07;;;1.90;;
19854;SDS011;10088;47.946;2.532;2023-02-28T12:28:12;3.13;;;2.27;;
19854;SDS011;10088;47.946;2.532;2023-02-28T12:33:20;3.27;;;2.20;;
19854;SDS011;10088;47.946;2.532;2023-02-28T12:36:02;3.40;;;2.00;;
19854;SDS011;10088;47.946;2.532;2023-02-28T12:38:52;2.43;;;2.00;;
19854;SDS011;10088;47.946;2.532;2023-02-28T12:41:27;2.00;;;1.73;;
19854;SDS011;10088;47.946;2.532;2023-02-28T12:44:06;2.90;;;2.10;;
19854;SDS011;10088;47.946;2.532;2023-02-28T12:46:47;3.43;;;2.33;;
19854;SDS011;10088;47.946;2.532;2023-02-28T12:49:20;2.60;;;2.37;;
19854;SDS011;10088;47.946;2.532;2023-02-28T12:51:57;3.10;;;2.33;;
19854;SDS011;10088;47.946;2.532;2023-02-28T13:04:58;3.73;;;2.80;;
19854;SDS011;10088;47.946;2.532;2023-02-28T13:10:20;4.13;;;3.60;;
19854;SDS011;10088;47.946;2.532;2023-02-28T13:12:55;3.33;;;3.03;;
19854;SDS011;10088;47.946;2.532;2023-02-28T13:15:26;3.20;;;2.40;;
19854;SDS011;10088;47.946;2.532;2023-02-28T13:17:56;3.37;;;2.73;;
19854;SDS011;10088;47.946;2.532;2023-02-28T13:20:27;5.10;;;3.50;;
19854;SDS011;10088;47.946;2.532;2023-02-28T13:22:57;2.77;;;2.30;;
19854;SDS011;10088;47.946;2.532;2023-02-28T13:28:10;4.97;;;3.30;;
19854;SDS011;10088;47.946;2.532;2023-02-28T13:33:26;4.67;;;3.03;;
19854;SDS011;10088;47.946;2.532;2023-02-28T13:38:33;2.23;;;2.03;;
19854;SDS011;10088;47.946;2.532;2023-02-28T13:52:09;5.33;;;2.73;;
19854;SDS011;10088;47.946;2.532;2023-02-28T14:00:13;2.60;;;2.17;;
19854;SDS011;10088;47.946;2.532;2023-02-28T14:05:42;2.60;;;2.40;;
19854;SDS011;10088;47.946;2.532;2023-02-28T14:08:13;3.20;;;2.60;;
19854;SDS011;10088;47.946;2.532;2023-02-28T14:10:50;2.80;;;2.57;;
19854;SDS011;10088;47.946;2.532;2023-02-28T14:16:00;2.70;;;2.37;;
19854;SDS011;10088;47.946;2.532;2023-02-28T14:18:32;2.80;;;2.60;;
19854;SDS011;10088;47.946;2.532;2023-02-28T14:21:02;3.37;;;2.53;;
19854;SDS011;10088;47.946;2.532;2023-02-28T14:26:43;2.87;;;2.60;;
19854;SDS011;10088;47.946;2.532;2023-02-28T14:37:15;3.90;;;3.00;;
19854;SDS011;10088;47.946;2.532;2023-02-28T14:39:45;4.23;;;2.33;;
19854;SDS011;10088;47.946;2.532;2023-02-28T14:44:58;2.83;;;2.63;;
19854;SDS011;10088;47.946;2.532;2023-02-28T14:47:32;3.27;;;2.93;;
19854;SDS011;10088;47.946;2.532;2023-02-28T14:50:00;3.07;;;2.77;;
19854;SDS011;10088;47.946;2.532;2023-02-28T14:52:36;3.73;;;2.97;;
19854;SDS011;10088;47.946;2.532;2023-02-28T14:55:05;4.07;;;3.17;;
19854;SDS011;10088;47.946;2.532;2023-02-28T14:57:41;3.10;;;2.80;;
19854;SDS011;10088;47.946;2.532;2023-02-28T15:00:30;4.33;;;3.70;;
19854;SDS011;10088;47.946;2.532;2023-02-28T15:03:11;3.60;;;3.10;;
19854;SDS011;10088;47.946;2.532;2023-02-28T15:05:42;3.63;;;2.87;;
19854;SDS011;10088;47.946;2.532;2023-02-28T15:08:36;4.00;;;3.30;;
19854;SDS011;10088;47.946;2.532;2023-02-28T15:11:03;3.30;;;3.00;;
19854;SDS011;10088;47.946;2.532;2023-02-28T15:13:50;4.60;;;3.57;;
19854;SDS011;10088;47.946;2.532;2023-02-28T15:16:39;3.90;;;3.60;;
19854;SDS011;10088;47.946;2.532;2023-02-28T15:21:46;4.07;;;3.63;;
19854;SDS011;10088;47.946;2.532;2023-02-28T15:26:57;7.07;;;3.73;;
19854;SDS011;10088;47.946;2.532;2023-02-28T15:29:26;5.53;;;3.67;;
19854;SDS011;10088;47.946;2.532;2023-02-28T15:32:33;5.47;;;4.57;;
19854;SDS011;10088;47.946;2.532;2023-02-28T15:38:21;6.70;;;4.27;;
19854;SDS011;10088;47.946;2.532;2023-02-28T15:40:54;6.00;;;4.30;;
19854;SDS011;10088;47.946;2.532;2023-02-28T15:43:31;5.20;;;3.83;;
19854;SDS011;10088;47.946;2.532;2023-02-28T15:46:01;4.20;;;3.80;;
19854;SDS011;10088;47.946;2.532;2023-02-28T15:48:31;6.17;;;4.90;;
19854;SDS011;10088;47.946;2.532;2023-02-28T15:51:30;5.43;;;4.37;;
19854;SDS011;10088;47.946;2.532;2023-02-28T15:54:14;5.70;;;4.53;;
19854;SDS011;10088;47.946;2.532;2023-02-28T15:56:49;5.67;;;4.60;;
19854;SDS011;10088;47.946;2.532;2023-02-28T15:59:28;5.77;;;4.73;;
19854;SDS011;10088;47.946;2.532;2023-02-28T16:04:28;5.53;;;4.23;;
19854;SDS011;10088;47.946;2.532;2023-02-28T16:09:25;5.23;;;4.67;;
19854;SDS011;10088;47.946;2.532;2023-02-28T16:11:53;4.23;;;3.83;;
19854;SDS011;10088;47.946;2.532;2023-02-28T16:14:29;4.37;;;3.97;;
19854;SDS011;10088;47.946;2.532;2023-02-28T16:17:04;5.37;;;4.53;;
19854;SDS011;10088;47.946;2.532;2023-02-28T16:19:31;5.60;;;4.07;;
19854;SDS011;10088;47.946;2.532;2023-02-28T16:21:57;6.50;;;4.37;;
19854;SDS011;10088;47.946;2.532;2023-02-28T16:24:23;6.07;;;4.30;;
19854;SDS011;10088;47.946;2.532;2023-02-28T16:26:52;12.87;;;6.07;;
19854;SDS011;10088;47.946;2.532;2023-02-28T16:29:22;11.13;;;10.10;;
19854;SDS011;10088;47.946;2.532;2023-02-28T16:31:49;5.50;;;5.00;;
19854;SDS011;10088;47.946;2.532;2023-02-28T16:34:15;6.50;;;5.30;;
19854;SDS011;10088;47.946;2.532;2023-02-28T16:36:41;6.47;;;4.87;;
19854;SDS011;10088;47.946;2.532;2023-02-28T16:39:07;5.33;;;4.80;;
19854;SDS011;10088;47.946;2.532;2023-02-28T16:41:32;5.57;;;4.80;;
19854;SDS011;10088;47.946;2.532;2023-02-28T16:43:59;5.00;;;4.50;;
19854;SDS011;10088;47.946;2.532;2023-02-28T16:46:33;4.80;;;4.37;;
19854;SDS011;10088;47.946;2.532;2023-02-28T16:48:58;6.43;;;4.80;;
19854;SDS011;10088;47.946;2.532;2023-02-28T16:51:24;7.10;;;4.63;;
19854;SDS011;10088;47.946;2.532;2023-02-28T16:53:50;5.40;;;4.90;;
19854;SDS011;10088;47.946;2.532;2023-02-28T16:56:19;5.27;;;4.77;;
19854;SDS011;10088;47.946;2.532;2023-02-28T16:58:45;10.90;;;7.10;;
19854;SDS011;10088;47.946;2.532;2023-02-28T17:01:12;5.33;;;4.80;;
19854;SDS011;10088;47.946;2.532;2023-02-28T17:03:37;6.77;;;5.53;;
19854;SDS011;10088;47.946;2.532;2023-02-28T17:06:03;7.83;;;5.90;;
19854;SDS011;10088;47.946;2.532;2023-02-28T17:08:30;5.53;;;4.93;;
19854;SDS011;10088;47.946;2.532;2023-02-28T17:10:58;6.17;;;5.20;;
19854;SDS011;10088;47.946;2.532;2023-02-28T17:13:24;8.40;;;5.13;;
19854;SDS011;10088;47.946;2.532;2023-02-28T17:15:50;5.90;;;4.93;;
19854;SDS011;10088;47.946;2.532;2023-02-28T17:18:17;7.03;;;5.43;;
19854;SDS011;10088;47.946;2.532;2023-02-28T17:20:44;7.80;;;6.27;;
19854;SDS011;10088;47.946;2.532;2023-02-28T17:23:10;7.53;;;6.17;;
19854;SDS011;10088;47.946;2.532;2023-02-28T17:25:36;10.73;;;7.40;;
19854;SDS011;10088;47.946;2.532;2023-02-28T17:28:02;10.67;;;7.93;;
19854;SDS011;10088;47.946;2.532;2023-02-28T17:30:28;10.40;;;7.67;;
19854;SDS011;10088;47.946;2.532;2023-02-28T17:32:54;10.77;;;7.83;;
19854;SDS011;10088;47.946;2.532;2023-02-28T17:35:21;12.60;;;8.97;;
19854;SDS011;10088;47.946;2.532;2023-02-28T17:37:46;16.67;;;9.90;;